North Branch, MN (55056)

2:38 AM CST on February 08, 2016 (GMT -0600)
Amador Township | | Change Station
CLOSE
Current Station
Personal Weather Station
Location: Almelund, MN
Elevation: 880 ft
Nearby Weather Stations
Active Advisory: Winter Weather Advisory

Elev 880 ft 45.55 °N, 92.80 °W | Updated 22 seconds ago

Overcast
Overcast
14.0 °F
Feels Like -2 °F
N
16.1
Wind Variable Wind from WNW
Gusts 16.1 mph

Today
High -- | Low -- °F
--% Chance of Precip.
Yesterday
High -- | Low -- °F
Precip. -- in
Pressure 29.78 in
Visibility 10.0 miles
Clouds Scattered Clouds 1300 ft
Mostly Cloudy 4600 ft
Overcast 4900 ft
Windchill -2 °F
Dew Point 9 °F
Humidity 79%
Rainfall 0.00 in
Snow Depth Not available.
7:24 AM 5:27 PM
Waning Crescent, 0% visible
METAR KROS 080836Z AUTO 32009G15KT 10SM SCT013 BKN046 OVC049 M10/M13 A2978 RMK AO2 T11001130
Pressure 29.78 in
Visibility 10.0 miles
Clouds Scattered Clouds 1300 ft
Mostly Cloudy 4600 ft
Overcast 4900 ft
Windchill -2 °F
Dew Point 9 °F
Humidity 79%
Rainfall 0.00 in
Snow Depth Not available.
7:24 AM 5:27 PM
Waning Crescent, 0% visible
METAR KROS 080836Z AUTO 32009G15KT 10SM SCT013 BKN046 OVC049 M10/M13 A2978 RMK AO2 T11001130

10-Day Weather Forecast

Almanac

Astronomy

Feb. 08, 2016 Rise Set
Actual Time
Civil Twilight
Nautical Twilight
Astronomical Twilight
Moon
Length of Visible Light
Length of Day
Tomorrow will be .
, % of the Moon is Illuminated

Today's Extremes

State Highs State Lows

Community

WunderPhotos

Upload Photos

1,891,412 photos uploaded!

WunderBlog® & News

Nearby

Air Quality

  Air Quality AQ Index Pollutant
Not available.

Snow Depth

Station Depth Elevation

Earthquake Activity

City Distance Mag. Time & Date
Minimum magnitude displayed is 2.5.

Coastal Water Temperatures

Place Temperature

Stations

Nearby Weather Stations

Station Location Temp. Windchill Dew Point Humidity Wind Precip. Elev Updated Type
                   

Watches & Warnings

Winter Weather Advisory
Issued: 8:21 PM CST Feb. 7, 2016 – National Weather Service

... Winter Weather Advisory remains in effect until noon CST
Monday...

* expect occasional light snow through Monday morning.

* Total snow accumulations of up to 1 inch are expected.

* Winds gusting as high as 40 mph will cause widespread blowing
and drifting snow.

* Plan on slippery Road conditions.

Precautionary/preparedness actions...

A Winter Weather Advisory for snow means periods of snow will
cause primarily travel difficulties. Be prepared for snow covered
roads and limited visibilities... and use caution while driving.
The latest Road conditions for the state you are calling from can
be obtained by calling 5 1 1.